Time;durP1;ratioP1;P1;durP2;ratioP2;P2;SDS_P1;SDS_P2;PMS_P1;PMS_P2;Temp;Humidity;BMP_temperature;BMP_pressure;BME280_temperature;BME280_humidity;BME280_pressure;Samples;Min_cycle;Max_cycle;Signal;HPM_P1;HPM_P2
2023/08/25 00:02:20;;;;;;;13.00;11.13;;;;;;;;;;5113414;28;20218;-70
2023/08/25 00:04:47;;;;;;;12.10;10.97;;;;;;;;;;5111932;28;20253;-70
2023/08/25 00:07:14;;;;;;;11.40;10.40;;;;;;;;;;5112878;28;20732;-70
2023/08/25 00:09:40;;;;;;;11.80;10.60;;;;;;;;;;5113369;28;20700;-70
2023/08/25 00:12:09;;;;;;;13.17;10.40;;;;;;;;;;5112916;28;20195;-70
2023/08/25 00:14:36;;;;;;;10.90;9.97;;;;;;;;;;5112810;28;20208;-71
2023/08/25 00:17:03;;;;;;;12.30;11.10;;;;;;;;;;5112469;28;20219;-70
2023/08/25 00:19:32;;;;;;;11.67;10.63;;;;;;;;;;5113390;28;20199;-71
2023/08/25 00:21:58;;;;;;;11.73;10.73;;;;;;;;;;5112944;28;20206;-70
2023/08/25 00:24:25;;;;;;;11.43;10.50;;;;;;;;;;5113356;28;20298;-70
2023/08/25 00:26:52;;;;;;;12.43;11.30;;;;;;;;;;5112722;28;20210;-70
2023/08/25 00:29:21;;;;;;;11.63;10.60;;;;;;;;;;5112664;28;20199;-71
2023/08/25 00:31:47;;;;;;;11.03;10.07;;;;;;;;;;5113301;28;20644;-71
2023/08/25 00:34:14;;;;;;;11.47;10.23;;;;;;;;;;5112062;28;20634;-70
2023/08/25 00:36:41;;;;;;;11.43;10.37;;;;;;;;;;5112713;28;20704;-71
2023/08/25 00:39:08;;;;;;;10.33;9.43;;;;;;;;;;5112654;28;20272;-71
2023/08/25 00:41:34;;;;;;;11.60;10.00;;;;;;;;;;5111538;28;20316;-70
2023/08/25 00:44:01;;;;;;;12.37;10.60;;;;;;;;;;5112703;28;20195;-70
2023/08/25 00:46:30;;;;;;;13.47;10.60;;;;;;;;;;5112662;28;20202;-71
2023/08/25 00:48:57;;;;;;;10.37;9.37;;;;;;;;;;5112311;28;20625;-70
2023/08/25 00:51:25;;;;;;;10.87;9.87;;;;;;;;;;5112707;28;20569;-71
2023/08/25 00:53:52;;;;;;;11.00;9.87;;;;;;;;;;5098544;28;20259;-71
2023/08/25 00:56:19;;;;;;;10.53;9.67;;;;;;;;;;5112692;28;20211;-71
2023/08/25 00:58:46;;;;;;;11.77;10.57;;;;;;;;;;5111935;28;20713;-70
2023/08/25 01:01:13;;;;;;;11.00;10.10;;;;;;;;;;5112147;28;20211;-70
2023/08/25 01:03:41;;;;;;;10.40;9.50;;;;;;;;;;5112122;28;20203;-70
2023/08/25 01:06:09;;;;;;;10.97;10.07;;;;;;;;;;5112165;28;20199;-71
2023/08/25 01:08:36;;;;;;;11.27;10.30;;;;;;;;;;5111549;28;20651;-71
2023/08/25 01:11:11;;;;;;;10.80;9.77;;;;;;;;;;5112072;28;20290;-71
2023/08/25 01:13:42;;;;;;;12.43;11.43;;;;;;;;;;5111141;28;20195;-71
2023/08/25 01:16:13;;;;;;;10.13;9.27;;;;;;;;;;5112240;28;20203;-71
2023/08/25 01:18:42;;;;;;;11.53;10.47;;;;;;;;;;5111954;28;20223;-70
2023/08/25 01:21:11;;;;;;;10.70;9.80;;;;;;;;;;5111820;28;20200;-71
2023/08/25 01:23:40;;;;;;;12.67;11.37;;;;;;;;;;5111406;28;20196;-71
2023/08/25 01:26:08;;;;;;;11.80;10.70;;;;;;;;;;5111740;28;20575;-71
2023/08/25 01:28:35;;;;;;;10.93;10.03;;;;;;;;;;5111914;28;20219;-70
2023/08/25 01:31:04;;;;;;;11.53;10.43;;;;;;;;;;5110989;28;20210;-70
2023/08/25 01:33:31;;;;;;;11.07;9.90;;;;;;;;;;5106262;28;20197;-71
2023/08/25 01:36:06;;;;;;;11.23;10.13;;;;;;;;;;5104859;28;20205;-70
2023/08/25 01:38:38;;;;;;;11.10;10.20;;;;;;;;;;5102393;28;20234;-70
2023/08/25 01:41:08;;;;;;;10.97;9.97;;;;;;;;;;5111034;28;20196;-70
2023/08/25 01:43:43;;;;;;;11.17;10.17;;;;;;;;;;5111286;28;20199;-70
2023/08/25 01:46:10;;;;;;;11.60;10.50;;;;;;;;;;5105908;28;20206;-70
2023/08/25 01:48:38;;;;;;;13.37;10.40;;;;;;;;;;5111476;28;20230;-70
2023/08/25 01:51:05;;;;;;;10.30;9.13;;;;;;;;;;5110850;28;20199;-70
2023/08/25 01:53:33;;;;;;;12.10;10.90;;;;;;;;;;5110770;28;20583;-70
2023/08/25 01:56:00;;;;;;;17.83;10.80;;;;;;;;;;5096611;28;20196;-70
2023/08/25 01:58:28;;;;;;;11.80;10.47;;;;;;;;;;5111125;28;20234;-70
2023/08/25 02:00:55;;;;;;;11.20;10.10;;;;;;;;;;5111039;28;20203;-70
2023/08/25 02:03:22;;;;;;;11.20;10.20;;;;;;;;;;5111224;28;20244;-71
2023/08/25 02:05:49;;;;;;;13.90;10.37;;;;;;;;;;5111303;28;20203;-71
2023/08/25 02:08:16;;;;;;;11.60;10.47;;;;;;;;;;5111238;28;20339;-70
2023/08/25 02:10:42;;;;;;;11.73;10.53;;;;;;;;;;5110729;28;20719;-71
2023/08/25 02:13:09;;;;;;;10.67;9.57;;;;;;;;;;5111461;28;20574;-71
2023/08/25 02:15:38;;;;;;;10.60;9.70;;;;;;;;;;5111225;28;20195;-71
2023/08/25 02:18:05;;;;;;;11.37;10.40;;;;;;;;;;5090893;28;20249;-72
2023/08/25 02:20:32;;;;;;;10.60;9.70;;;;;;;;;;5110172;28;20201;-72
2023/08/25 02:22:59;;;;;;;10.20;9.40;;;;;;;;;;5108243;28;20619;-72
2023/08/25 02:25:25;;;;;;;11.23;10.07;;;;;;;;;;5111206;28;20211;-72
2023/08/25 02:27:52;;;;;;;10.27;9.37;;;;;;;;;;5110705;28;20618;-72
2023/08/25 02:30:19;;;;;;;10.80;9.80;;;;;;;;;;5110795;28;20199;-70
2023/08/25 02:32:47;;;;;;;15.07;10.40;;;;;;;;;;5110683;28;20312;-70
2023/08/25 02:35:14;;;;;;;12.20;11.07;;;;;;;;;;5110911;28;20214;-70
2023/08/25 02:37:57;;;;;;;11.23;10.13;;;;;;;;;;5110268;28;20200;-70
2023/08/25 02:40:24;;;;;;;10.63;9.73;;;;;;;;;;5101132;28;20290;-71
2023/08/25 02:42:51;;;;;;;11.77;10.67;;;;;;;;;;5105972;28;20591;-70
2023/08/25 02:45:18;;;;;;;13.93;10.47;;;;;;;;;;5104675;28;20222;-71
2023/08/25 02:47:45;;;;;;;10.83;9.83;;;;;;;;;;5110111;28;20208;-71
2023/08/25 02:50:13;;;;;;;11.37;10.27;;;;;;;;;;5110371;28;20669;-73
2023/08/25 02:52:40;;;;;;;11.13;10.03;;;;;;;;;;5110673;28;20596;-73
2023/08/25 02:55:08;;;;;;;11.93;10.93;;;;;;;;;;5110334;28;20264;-73
2023/08/25 02:57:34;;;;;;;10.60;9.70;;;;;;;;;;5110232;28;20294;-73
2023/08/25 03:00:03;;;;;;;11.87;10.67;;;;;;;;;;5109790;28;20203;-73
2023/08/25 03:02:31;;;;;;;11.37;10.10;;;;;;;;;;5109649;28;20207;-73
2023/08/25 03:04:58;;;;;;;12.47;10.77;;;;;;;;;;5113908;28;20286;-73
2023/08/25 03:07:26;;;;;;;13.33;11.87;;;;;;;;;;5114419;28;20640;-74
2023/08/25 03:09:53;;;;;;;12.03;10.97;;;;;;;;;;5113394;28;20199;-74
2023/08/25 03:12:20;;;;;;;11.70;10.67;;;;;;;;;;5114154;28;20260;-74
2023/08/25 03:14:47;;;;;;;11.60;10.50;;;;;;;;;;5113691;28;20207;-73
2023/08/25 03:17:14;;;;;;;12.60;11.50;;;;;;;;;;5111336;28;20210;-74
2023/08/25 03:19:41;;;;;;;13.10;11.70;;;;;;;;;;5109138;28;20717;-74
2023/08/25 03:22:08;;;;;;;12.73;11.60;;;;;;;;;;5098445;28;20207;-73
2023/08/25 03:24:36;;;;;;;11.37;10.43;;;;;;;;;;5104428;28;20590;-73
2023/08/25 03:27:03;;;;;;;11.80;10.80;;;;;;;;;;5113795;28;20227;-75
2023/08/25 03:29:31;;;;;;;12.20;11.00;;;;;;;;;;5113430;28;20211;-75
2023/08/25 03:31:58;;;;;;;12.23;9.93;;;;;;;;;;5114059;28;20206;-74
2023/08/25 03:34:25;;;;;;;11.07;10.17;;;;;;;;;;5113604;28;20226;-76
2023/08/25 03:36:52;;;;;;;11.93;10.93;;;;;;;;;;5114526;28;20204;-75
2023/08/25 03:39:19;;;;;;;12.33;11.27;;;;;;;;;;5113336;28;20579;-78
2023/08/25 03:41:47;;;;;;;11.90;10.83;;;;;;;;;;5112986;28;20673;-78
2023/08/25 03:44:14;;;;;;;11.57;10.57;;;;;;;;;;5095426;28;20199;-78
2023/08/25 03:46:41;;;;;;;11.20;10.10;;;;;;;;;;5109415;28;20199;-78
2023/08/25 03:49:09;;;;;;;11.93;10.07;;;;;;;;;;5113793;28;20203;-78
2023/08/25 03:51:36;;;;;;;10.87;10.00;;;;;;;;;;5113667;28;20195;-76
2023/08/25 03:54:03;;;;;;;10.97;9.97;;;;;;;;;;5111477;28;20208;-78
2023/08/25 03:56:30;;;;;;;13.00;11.73;;;;;;;;;;5113750;28;20666;-78
2023/08/25 03:58:59;;;;;;;13.93;12.53;;;;;;;;;;5113538;28;20254;-76
2023/08/25 04:01:26;;;;;;;13.90;12.43;;;;;;;;;;5108735;28;20204;-76
2023/08/25 04:03:52;;;;;;;11.40;10.20;;;;;;;;;;5093321;28;20201;-76
2023/08/25 04:06:19;;;;;;;10.57;9.57;;;;;;;;;;5112856;28;20608;-74
2023/08/25 04:08:46;;;;;;;10.27;9.37;;;;;;;;;;5107226;28;20204;-77
2023/08/25 04:11:13;;;;;;;11.30;10.17;;;;;;;;;;5101025;28;20199;-77
2023/08/25 04:13:39;;;;;;;10.87;9.77;;;;;;;;;;5101643;28;20257;-76
2023/08/25 04:16:08;;;;;;;10.97;9.97;;;;;;;;;;5112351;28;20622;-78
2023/08/25 04:18:34;;;;;;;10.63;9.47;;;;;;;;;;5112993;28;20226;-80
2023/08/25 04:21:01;;;;;;;12.30;10.07;;;;;;;;;;5113154;28;20204;-80
2023/08/25 04:23:28;;;;;;;11.73;10.77;;;;;;;;;;5111704;28;20692;-80
2023/08/25 04:25:56;;;;;;;11.93;10.83;;;;;;;;;;5112547;28;20204;-80
2023/08/25 04:28:24;;;;;;;10.93;9.93;;;;;;;;;;5111496;28;20253;-80
2023/08/25 04:30:53;;;;;;;13.77;10.37;;;;;;;;;;5110997;28;20620;-80
2023/08/25 04:33:21;;;;;;;10.20;9.20;;;;;;;;;;5111667;28;20618;-80
2023/08/25 04:35:47;;;;;;;11.83;9.87;;;;;;;;;;5111131;28;20219;-80
2023/08/25 04:38:14;;;;;;;11.30;10.30;;;;;;;;;;5111878;28;20559;-80
2023/08/25 04:40:41;;;;;;;10.83;10.03;;;;;;;;;;5112374;28;20204;-79
2023/08/25 04:43:08;;;;;;;10.50;9.57;;;;;;;;;;5112520;28;20256;-80
2023/08/25 04:45:35;;;;;;;11.07;10.17;;;;;;;;;;5112737;28;20192;-80
2023/08/25 04:48:02;;;;;;;11.50;10.50;;;;;;;;;;5112648;28;20203;-80
2023/08/25 04:50:30;;;;;;;12.77;11.40;;;;;;;;;;5112508;28;20642;-80
2023/08/25 04:52:57;;;;;;;14.13;11.17;;;;;;;;;;5112836;28;20196;-80
2023/08/25 04:55:23;;;;;;;11.33;10.43;;;;;;;;;;5112300;28;20607;-80
2023/08/25 04:57:50;;;;;;;11.13;10.13;;;;;;;;;;5112507;28;20229;-80
2023/08/25 05:00:17;;;;;;;12.07;10.97;;;;;;;;;;5111720;28;20609;-80
2023/08/25 05:02:44;;;;;;;11.07;9.90;;;;;;;;;;5112223;28;20207;-79
2023/08/25 05:05:11;;;;;;;11.23;10.23;;;;;;;;;;5112503;28;20196;-80
2023/08/25 05:07:39;;;;;;;11.43;10.30;;;;;;;;;;5111985;28;20734;-80
2023/08/25 05:10:09;;;;;;;12.40;10.10;;;;;;;;;;5112014;28;20196;-80
2023/08/25 05:12:35;;;;;;;10.77;9.93;;;;;;;;;;5112305;28;20207;-80
2023/08/25 05:15:03;;;;;;;12.47;11.40;;;;;;;;;;5111982;28;20637;-81
2023/08/25 05:17:31;;;;;;;11.93;10.93;;;;;;;;;;5098465;28;20288;-80
2023/08/25 05:19:58;;;;;;;12.03;11.13;;;;;;;;;;5085617;28;20216;-80
2023/08/25 05:22:25;;;;;;;12.23;11.23;;;;;;;;;;5111491;28;20195;-80
2023/08/25 05:24:53;;;;;;;10.83;9.93;;;;;;;;;;5104543;28;20204;-80
2023/08/25 05:27:20;;;;;;;12.37;11.23;;;;;;;;;;5105424;28;20227;-80
2023/08/25 05:29:48;;;;;;;12.10;10.97;;;;;;;;;;5111403;28;20207;-80
2023/08/25 05:32:15;;;;;;;12.77;11.70;;;;;;;;;;5111912;28;20203;-80
2023/08/25 05:34:41;;;;;;;11.40;10.43;;;;;;;;;;5111613;28;20210;-80
2023/08/25 05:37:08;;;;;;;11.70;10.60;;;;;;;;;;5111405;28;20200;-80
2023/08/25 05:39:35;;;;;;;12.43;11.17;;;;;;;;;;5085297;28;20230;-80
2023/08/25 05:42:03;;;;;;;12.90;11.57;;;;;;;;;;5111714;28;20211;-80
2023/08/25 05:44:31;;;;;;;15.93;11.77;;;;;;;;;;5111521;28;20200;-80
2023/08/25 05:46:58;;;;;;;13.03;11.37;;;;;;;;;;5111172;28;20211;-80
2023/08/25 05:49:25;;;;;;;13.43;12.17;;;;;;;;;;5111669;28;20225;-80
2023/08/25 05:51:52;;;;;;;13.77;11.57;;;;;;;;;;5111629;28;20327;-79
2023/08/25 05:54:19;;;;;;;13.40;11.97;;;;;;;;;;5111327;28;20196;-79
2023/08/25 05:56:45;;;;;;;13.13;11.83;;;;;;;;;;5110813;28;20750;-79
2023/08/25 05:59:14;;;;;;;12.87;11.60;;;;;;;;;;5110692;28;20613;-79
2023/08/25 06:01:41;;;;;;;13.27;11.97;;;;;;;;;;5110651;28;20203;-79
2023/08/25 06:04:08;;;;;;;13.40;12.20;;;;;;;;;;5111388;28;20253;-79
2023/08/25 06:06:35;;;;;;;11.80;10.80;;;;;;;;;;5111097;28;20664;-79
2023/08/25 06:09:02;;;;;;;12.53;11.30;;;;;;;;;;5110680;28;20208;-79
2023/08/25 06:11:30;;;;;;;11.93;10.83;;;;;;;;;;5097635;28;20200;-79
2023/08/25 06:13:56;;;;;;;13.30;12.20;;;;;;;;;;5111193;28;20235;-78
2023/08/25 06:16:26;;;;;;;12.83;11.73;;;;;;;;;;5110751;28;20654;-79
2023/08/25 06:18:53;;;;;;;12.30;11.10;;;;;;;;;;5110692;28;20199;-78
2023/08/25 06:21:20;;;;;;;12.03;11.13;;;;;;;;;;5110504;28;20206;-78
2023/08/25 06:23:46;;;;;;;12.73;11.63;;;;;;;;;;5110953;28;20195;-78
2023/08/25 06:26:13;;;;;;;11.37;10.40;;;;;;;;;;5110605;28;20207;-78
2023/08/25 06:28:40;;;;;;;12.63;11.63;;;;;;;;;;5111399;28;20643;-78
2023/08/25 06:31:09;;;;;;;13.50;11.67;;;;;;;;;;5111248;28;20204;-78
2023/08/25 06:33:38;;;;;;;12.13;10.57;;;;;;;;;;5110122;28;20200;-78
2023/08/25 06:36:05;;;;;;;12.30;11.23;;;;;;;;;;5110897;28;20248;-78
2023/08/25 06:38:32;;;;;;;12.60;11.43;;;;;;;;;;5111917;28;20207;-78
2023/08/25 06:40:59;;;;;;;11.33;10.33;;;;;;;;;;5114880;28;20223;-78
2023/08/25 06:43:26;;;;;;;11.50;10.30;;;;;;;;;;5115120;28;20204;-78
2023/08/25 06:45:53;;;;;;;10.87;9.87;;;;;;;;;;5114802;28;20195;-78
2023/08/25 06:48:19;;;;;;;10.50;9.70;;;;;;;;;;5114902;28;20289;-77
2023/08/25 06:50:47;;;;;;;10.90;9.80;;;;;;;;;;5114884;28;20206;-77
2023/08/25 06:53:14;;;;;;;11.00;10.00;;;;;;;;;;5114394;28;20203;-77
2023/08/25 06:55:41;;;;;;;10.43;9.63;;;;;;;;;;5114539;28;20195;-78
2023/08/25 06:58:08;;;;;;;10.67;9.77;;;;;;;;;;5114540;28;20233;-78
2023/08/25 07:00:35;;;;;;;10.60;9.67;;;;;;;;;;5114590;28;20233;-78
2023/08/25 07:03:03;;;;;;;10.73;9.70;;;;;;;;;;5114621;28;20199;-78
2023/08/25 07:05:31;;;;;;;11.45;9.93;;;;;;;;;;5114679;28;20210;-77
2023/08/25 07:07:59;;;;;;;11.15;10.25;;;;;;;;;;5114802;28;20203;-78
2023/08/25 07:10:26;;;;;;;10.27;9.38;;;;;;;;;;5114763;28;20203;-77
2023/08/25 07:12:53;;;;;;;9.85;9.07;;;;;;;;;;5114024;28;20206;-77
2023/08/25 07:15:20;;;;;;;9.95;8.85;;;;;;;;;;5114744;28;20249;-78
2023/08/25 07:17:47;;;;;;;10.98;9.98;;;;;;;;;;5113914;28;20248;-77
2023/08/25 07:20:14;;;;;;;9.25;8.45;;;;;;;;;;5114477;28;20272;-77
2023/08/25 07:22:41;;;;;;;12.10;9.25;;;;;;;;;;5113804;28;20657;-77
2023/08/25 07:25:10;;;;;;;8.15;7.55;;;;;;;;;;5114656;28;20199;-77
2023/08/25 07:27:37;;;;;;;10.00;9.20;;;;;;;;;;5113937;28;20242;-78
2023/08/25 07:30:04;;;;;;;11.88;9.10;;;;;;;;;;5113880;28;20211;-78
2023/08/25 07:32:31;;;;;;;8.93;8.20;;;;;;;;;;5113819;28;20203;-77
2023/08/25 07:34:58;;;;;;;10.05;9.25;;;;;;;;;;5114106;28;20286;-77
2023/08/25 07:37:25;;;;;;;10.77;9.23;;;;;;;;;;5113985;28;20211;-77
2023/08/25 07:39:53;;;;;;;11.60;10.40;;;;;;;;;;5113313;28;20716;-77
2023/08/25 07:42:22;;;;;;;10.70;9.48;;;;;;;;;;5113452;28;20685;-78
2023/08/25 07:44:49;;;;;;;12.65;9.80;;;;;;;;;;5113644;28;20207;-77
2023/08/25 07:47:15;;;;;;;9.98;9.10;;;;;;;;;;5113285;28;20253;-78
2023/08/25 07:49:43;;;;;;;10.13;9.15;;;;;;;;;;5113315;28;20203;-77
2023/08/25 07:52:09;;;;;;;9.65;8.52;;;;;;;;;;5113203;28;20196;-78
2023/08/25 07:54:37;;;;;;;10.15;9.10;;;;;;;;;;5113409;28;20211;-78
2023/08/25 07:57:04;;;;;;;9.65;8.75;;;;;;;;;;5113507;28;20206;-78
2023/08/25 07:59:32;;;;;;;8.82;8.13;;;;;;;;;;5113551;28;20223;-78
2023/08/25 08:01:59;;;;;;;9.45;8.55;;;;;;;;;;5113676;28;20199;-78
2023/08/25 08:04:26;;;;;;;9.68;8.35;;;;;;;;;;5113336;28;20294;-78
2023/08/25 08:06:53;;;;;;;9.85;8.23;;;;;;;;;;5113271;28;20222;-78
2023/08/25 08:09:20;;;;;;;9.45;8.55;;;;;;;;;;5113382;28;20249;-78
2023/08/25 08:11:46;;;;;;;8.13;7.43;;;;;;;;;;5113040;28;20191;-78
2023/08/25 08:14:13;;;;;;;9.20;8.27;;;;;;;;;;5112793;28;20673;-78
2023/08/25 08:16:41;;;;;;;10.50;9.43;;;;;;;;;;5107549;28;20204;-78
2023/08/25 08:19:10;;;;;;;8.63;7.80;;;;;;;;;;5105337;28;20669;-78
2023/08/25 08:21:36;;;;;;;9.43;8.65;;;;;;;;;;5112691;28;20269;-78
2023/08/25 08:24:03;;;;;;;9.88;8.50;;;;;;;;;;5112727;28;20209;-78
2023/08/25 08:26:31;;;;;;;9.10;8.40;;;;;;;;;;5112906;28;20207;-78
2023/08/25 08:28:58;;;;;;;8.32;7.63;;;;;;;;;;5112871;28;20227;-77
2023/08/25 08:31:25;;;;;;;9.10;8.30;;;;;;;;;;5099314;28;20217;-78
2023/08/25 08:33:53;;;;;;;9.80;8.82;;;;;;;;;;5112303;28;20587;-77
2023/08/25 08:36:20;;;;;;;8.88;8.20;;;;;;;;;;5112947;28;20203;-78
2023/08/25 08:38:47;;;;;;;11.10;8.93;;;;;;;;;;5112277;28;20216;-78
2023/08/25 08:41:15;;;;;;;9.73;8.70;;;;;;;;;;5112960;28;20246;-77
2023/08/25 08:43:45;;;;;;;9.30;8.60;;;;;;;;;;5112648;28;20286;-77
2023/08/25 08:46:16;;;;;;;9.60;8.52;;;;;;;;;;5112828;28;20631;-78
2023/08/25 08:48:43;;;;;;;9.82;8.80;;;;;;;;;;5112048;28;20230;-78
2023/08/25 08:51:12;;;;;;;9.38;8.63;;;;;;;;;;5112345;28;20200;-77
2023/08/25 08:53:40;;;;;;;10.40;9.35;;;;;;;;;;5112162;28;20253;-78
2023/08/25 08:56:07;;;;;;;10.93;8.95;;;;;;;;;;5112771;28;20226;-78
2023/08/25 08:58:34;;;;;;;9.45;8.75;;;;;;;;;;5112300;28;20203;-77
2023/08/25 09:01:01;;;;;;;9.60;8.48;;;;;;;;;;5111810;28;20284;-77
2023/08/25 09:03:33;;;;;;;9.18;8.38;;;;;;;;;;5111699;28;20566;-77
2023/08/25 09:06:03;;;;;;;8.93;8.05;;;;;;;;;;5112302;28;20250;-77
2023/08/25 09:08:35;;;;;;;10.40;9.50;;;;;;;;;;5111299;28;20200;-77
2023/08/25 09:11:04;;;;;;;9.68;8.77;;;;;;;;;;5112478;28;20225;-77
2023/08/25 09:13:33;;;;;;;10.20;8.98;;;;;;;;;;5111959;28;20207;-77
2023/08/25 09:16:00;;;;;;;10.07;9.07;;;;;;;;;;5112216;28;20290;-77
2023/08/25 09:18:33;;;;;;;9.77;8.68;;;;;;;;;;5111270;28;20208;-77
2023/08/25 09:21:01;;;;;;;10.57;8.50;;;;;;;;;;5111703;28;20759;-77
2023/08/25 09:23:28;;;;;;;9.52;8.60;;;;;;;;;;5111725;28;20716;-77
2023/08/25 09:25:58;;;;;;;9.00;8.18;;;;;;;;;;5111718;28;20286;-77
2023/08/25 09:28:25;;;;;;;10.38;8.70;;;;;;;;;;5111529;28;20219;-77
2023/08/25 09:30:52;;;;;;;9.65;8.38;;;;;;;;;;5111792;28;20715;-77
2023/08/25 09:33:21;;;;;;;8.60;7.80;;;;;;;;;;5111485;28;20677;-77
2023/08/25 09:35:48;;;;;;;8.05;7.40;;;;;;;;;;5111744;28;20608;-77
2023/08/25 09:38:22;;;;;;;8.05;7.40;;;;;;;;;;5111095;28;20230;-76
2023/08/25 09:40:48;;;;;;;10.13;7.63;;;;;;;;;;5111050;28;20306;-76
2023/08/25 09:43:16;;;;;;;8.82;8.05;;;;;;;;;;5111078;28;20199;-77
2023/08/25 09:45:43;;;;;;;8.27;7.22;;;;;;;;;;5111175;28;20249;-77
2023/08/25 09:48:11;;;;;;;8.32;7.60;;;;;;;;;;5111232;28;20211;-77
2023/08/25 09:50:39;;;;;;;10.98;7.35;;;;;;;;;;5111304;28;20212;-77
2023/08/25 09:53:07;;;;;;;7.63;6.97;;;;;;;;;;5111315;28;20199;-76
2023/08/25 09:55:35;;;;;;;7.88;7.15;;;;;;;;;;5111740;28;20195;-77
2023/08/25 09:58:03;;;;;;;7.45;6.82;;;;;;;;;;5111169;28;20199;-76
2023/08/25 10:00:32;;;;;;;6.75;6.15;;;;;;;;;;5111063;28;20230;-76
2023/08/25 10:02:59;;;;;;;7.72;7.13;;;;;;;;;;5111128;28;20207;-76
2023/08/25 10:05:26;;;;;;;8.35;7.55;;;;;;;;;;5111074;28;20207;-76
2023/08/25 10:07:53;;;;;;;8.60;7.72;;;;;;;;;;5110889;28;20203;-76
2023/08/25 10:10:21;;;;;;;7.75;6.88;;;;;;;;;;5111203;28;20234;-76
2023/08/25 10:12:48;;;;;;;7.20;6.57;;;;;;;;;;5110272;28;20304;-77
2023/08/25 10:15:17;;;;;;;8.18;7.20;;;;;;;;;;5111077;28;20636;-76
2023/08/25 10:17:46;;;;;;;8.52;7.32;;;;;;;;;;5111403;28;20206;-77
2023/08/25 10:20:14;;;;;;;7.63;6.93;;;;;;;;;;5111063;28;20227;-77
2023/08/25 10:22:42;;;;;;;7.38;6.80;;;;;;;;;;5110919;28;20256;-77
2023/08/25 10:25:10;;;;;;;8.75;8.00;;;;;;;;;;5111409;28;20241;-77
2023/08/25 10:27:37;;;;;;;12.45;11.20;;;;;;;;;;5110304;28;20226;-76
2023/08/25 10:30:04;;;;;;;12.23;9.05;;;;;;;;;;5111468;28;20210;-77
2023/08/25 10:32:57;;;;;;;8.32;7.63;;;;;;;;;;5111074;28;20203;-76
2023/08/25 10:35:40;;;;;;;8.05;7.35;;;;;;;;;;5095497;28;20219;-76
2023/08/25 10:38:39;;;;;;;9.45;7.93;;;;;;;;;;5111226;28;20248;-77
2023/08/25 10:41:14;;;;;;;8.60;7.78;;;;;;;;;;5048107;28;20621;-77
2023/08/25 10:43:42;;;;;;;8.38;7.70;;;;;;;;;;5100467;28;20691;-77
2023/08/25 10:46:09;;;;;;;7.72;7.13;;;;;;;;;;5110711;28;20589;-78
2023/08/25 10:48:40;;;;;;;8.02;7.40;;;;;;;;;;5111052;28;20562;-77
2023/08/25 10:51:08;;;;;;;8.02;7.32;;;;;;;;;;5110965;28;20202;-76
2023/08/25 10:53:36;;;;;;;8.52;6.80;;;;;;;;;;5110805;28;20208;-76
2023/08/25 10:56:16;;;;;;;7.55;6.95;;;;;;;;;;5110999;28;20264;-76
2023/08/25 10:58:43;;;;;;;8.50;7.80;;;;;;;;;;5109326;28;20199;-76
2023/08/25 11:01:10;;;;;;;8.60;7.90;;;;;;;;;;5110733;28;20227;-77
2023/08/25 11:03:48;;;;;;;8.48;7.88;;;;;;;;;;5109702;28;20206;-76
2023/08/25 11:06:38;;;;;;;9.93;8.38;;;;;;;;;;5110430;28;20203;-77
2023/08/25 11:09:04;;;;;;;19.10;8.77;;;;;;;;;;5090046;28;20231;-77
2023/08/25 11:11:32;;;;;;;8.10;7.50;;;;;;;;;;5110865;28;20640;-76
2023/08/25 11:13:59;;;;;;;9.25;8.45;;;;;;;;;;5110492;28;20200;-76
2023/08/25 11:16:26;;;;;;;8.48;7.78;;;;;;;;;;5110405;28;20210;-77
2023/08/25 11:18:54;;;;;;;9.63;7.90;;;;;;;;;;5110366;28;20207;-76
2023/08/25 11:21:24;;;;;;;8.55;7.75;;;;;;;;;;5110732;28;20273;-77
2023/08/25 11:23:50;;;;;;;9.52;7.95;;;;;;;;;;5110140;28;20264;-77
2023/08/25 11:26:18;;;;;;;9.25;8.38;;;;;;;;;;5113891;28;20612;-77
2023/08/25 11:28:48;;;;;;;7.70;7.10;;;;;;;;;;5114340;28;20235;-77
2023/08/25 11:31:15;;;;;;;8.75;8.02;;;;;;;;;;5113619;28;20680;-77
2023/08/25 11:33:42;;;;;;;7.70;7.10;;;;;;;;;;5113776;28;20199;-77
2023/08/25 11:36:15;;;;;;;12.07;9.23;;;;;;;;;;5114156;28;20233;-76
2023/08/25 11:38:42;;;;;;;9.60;8.82;;;;;;;;;;5114141;28;20324;-76
2023/08/25 11:41:11;;;;;;;8.93;8.13;;;;;;;;;;5113632;28;20701;-76
2023/08/25 11:43:38;;;;;;;9.70;8.88;;;;;;;;;;5113993;28;20268;-76
2023/08/25 11:46:05;;;;;;;8.45;7.85;;;;;;;;;;5113876;28;20677;-76
2023/08/25 11:48:34;;;;;;;9.35;8.52;;;;;;;;;;5113907;28;20253;-76
2023/08/25 11:51:00;;;;;;;9.23;8.38;;;;;;;;;;5113934;28;20207;-76
2023/08/25 11:53:31;;;;;;;10.38;8.93;;;;;;;;;;5113302;28;20199;-77
2023/08/25 11:56:02;;;;;;;8.95;8.25;;;;;;;;;;5113635;28;20223;-76
2023/08/25 11:58:32;;;;;;;13.43;8.60;;;;;;;;;;5113109;28;20574;-76
2023/08/25 12:01:00;;;;;;;10.10;9.25;;;;;;;;;;5113441;28;20227;-76
2023/08/25 12:03:27;;;;;;;15.05;9.13;;;;;;;;;;5113338;28;20199;-76
2023/08/25 12:05:54;;;;;;;9.55;8.63;;;;;;;;;;5113610;28;20297;-76
2023/08/25 12:08:21;;;;;;;8.13;7.35;;;;;;;;;;5113358;28;20192;-76
2023/08/25 12:10:50;;;;;;;9.30;8.50;;;;;;;;;;5113390;28;20300;-76
2023/08/25 12:13:16;;;;;;;8.85;7.63;;;;;;;;;;5112339;28;20192;-76
2023/08/25 12:15:45;;;;;;;9.75;7.90;;;;;;;;;;5113643;28;20210;-76
2023/08/25 12:18:13;;;;;;;9.73;8.82;;;;;;;;;;5113321;28;20204;-77
2023/08/25 12:20:44;;;;;;;9.95;8.32;;;;;;;;;;5113157;28;20203;-76
2023/08/25 12:23:10;;;;;;;9.48;8.57;;;;;;;;;;5112927;28;20687;-76
2023/08/25 12:25:42;;;;;;;12.68;10.20;;;;;;;;;;5113923;28;20203;-75
2023/08/25 12:28:10;;;;;;;9.20;8.50;;;;;;;;;;5112640;28;20223;-76
2023/08/25 12:30:39;;;;;;;9.55;8.85;;;;;;;;;;5112969;28;20260;-76
2023/08/25 12:33:06;;;;;;;9.02;8.20;;;;;;;;;;5086085;28;20196;-75
2023/08/25 12:35:34;;;;;;;9.05;8.15;;;;;;;;;;5112385;28;20290;-75
2023/08/25 12:38:01;;;;;;;9.13;8.23;;;;;;;;;;5112552;28;20287;-76
2023/08/25 12:40:27;;;;;;;9.00;8.30;;;;;;;;;;5113160;28;20195;-76
2023/08/25 12:42:55;;;;;;;8.68;7.97;;;;;;;;;;5112550;28;20601;-76
2023/08/25 12:45:24;;;;;;;9.52;8.68;;;;;;;;;;5112361;28;20663;-76
2023/08/25 12:47:51;;;;;;;10.48;9.57;;;;;;;;;;5112320;28;20260;-76
2023/08/25 12:50:19;;;;;;;9.10;8.32;;;;;;;;;;5112238;28;20206;-75
2023/08/25 12:52:46;;;;;;;9.73;8.93;;;;;;;;;;5112624;28;20200;-76
2023/08/25 12:55:14;;;;;;;11.27;10.45;;;;;;;;;;5112227;28;20199;-75
2023/08/25 12:57:43;;;;;;;11.98;11.02;;;;;;;;;;5112081;28;20643;-75
2023/08/25 13:00:11;;;;;;;11.52;10.52;;;;;;;;;;5112313;28;20283;-75
2023/08/25 13:02:40;;;;;;;10.52;9.70;;;;;;;;;;5112615;28;20235;-76
2023/08/25 13:05:09;;;;;;;10.77;9.73;;;;;;;;;;5111952;28;20210;-75
2023/08/25 13:07:37;;;;;;;11.63;10.70;;;;;;;;;;5112267;28;20281;-75
2023/08/25 13:10:05;;;;;;;10.73;9.95;;;;;;;;;;5112016;28;20746;-75
2023/08/25 13:12:32;;;;;;;10.30;9.52;;;;;;;;;;5112213;28;21227;-76
2023/08/25 13:14:59;;;;;;;10.45;9.40;;;;;;;;;;5111928;28;20199;-76
2023/08/25 13:17:26;;;;;;;9.70;8.70;;;;;;;;;;5112149;28;20222;-76
2023/08/25 13:19:55;;;;;;;8.88;8.15;;;;;;;;;;5112373;28;20204;-76
2023/08/25 13:22:21;;;;;;;9.70;8.82;;;;;;;;;;5112131;28;20314;-76
2023/08/25 13:24:49;;;;;;;12.38;9.07;;;;;;;;;;5111642;28;20686;-76
2023/08/25 13:27:16;;;;;;;9.20;8.40;;;;;;;;;;5111499;28;20262;-76
2023/08/25 13:29:43;;;;;;;10.65;9.75;;;;;;;;;;5111944;28;20234;-75
2023/08/25 13:32:10;;;;;;;10.93;7.80;;;;;;;;;;5111708;28;20214;-75
2023/08/25 13:34:36;;;;;;;9.48;8.68;;;;;;;;;;5111441;28;20218;-76
2023/08/25 13:37:05;;;;;;;9.57;8.70;;;;;;;;;;5111797;28;20214;-75
2023/08/25 13:39:33;;;;;;;8.68;7.88;;;;;;;;;;5111741;28;20203;-75
2023/08/25 13:42:00;;;;;;;8.98;8.07;;;;;;;;;;5111651;28;20226;-76
2023/08/25 13:44:26;;;;;;;10.40;7.93;;;;;;;;;;5111375;28;20206;-76
2023/08/25 13:46:53;;;;;;;8.82;7.75;;;;;;;;;;5111338;28;20211;-76
2023/08/25 13:49:20;;;;;;;8.88;7.97;;;;;;;;;;5084258;28;20832;-75
2023/08/25 13:51:47;;;;;;;8.05;7.35;;;;;;;;;;5110975;28;20200;-76
2023/08/25 13:54:15;;;;;;;8.95;8.15;;;;;;;;;;5110986;28;20204;-75
2023/08/25 13:56:42;;;;;;;8.88;7.70;;;;;;;;;;5111188;28;20200;-76
2023/08/25 13:59:09;;;;;;;9.02;7.55;;;;;;;;;;5111277;28;20198;-75
2023/08/25 14:01:35;;;;;;;7.00;6.40;;;;;;;;;;5110613;28;20231;-75
2023/08/25 14:04:03;;;;;;;9.07;7.32;;;;;;;;;;5106658;28;20219;-76
2023/08/25 14:06:31;;;;;;;8.27;7.20;;;;;;;;;;5105475;28;20689;-76
2023/08/25 14:08:58;;;;;;;7.32;6.72;;;;;;;;;;5110518;28;20199;-76
2023/08/25 14:11:26;;;;;;;7.80;7.07;;;;;;;;;;5110655;28;20253;-75
2023/08/25 14:13:53;;;;;;;7.80;7.20;;;;;;;;;;5110819;28;20202;-76
2023/08/25 14:16:20;;;;;;;11.48;10.27;;;;;;;;;;5110841;28;20204;-75
2023/08/25 14:18:46;;;;;;;10.48;9.05;;;;;;;;;;5097509;28;20674;-76
2023/08/25 14:21:13;;;;;;;12.95;11.75;;;;;;;;;;5090939;28;20204;-75
2023/08/25 14:23:40;;;;;;;17.25;15.45;;;;;;;;;;5110958;28;20261;-75
2023/08/25 14:26:07;;;;;;;14.23;12.38;;;;;;;;;;5110456;28;20208;-75
2023/08/25 14:28:35;;;;;;;8.20;7.38;;;;;;;;;;5111054;28;20323;-75
2023/08/25 14:31:05;;;;;;;8.68;7.97;;;;;;;;;;5110448;28;20214;-75
2023/08/25 14:33:31;;;;;;;8.65;6.75;;;;;;;;;;5111066;28;20223;-75